Dededo, Guam
Current Conditions -  °F | °C
As of 10:54 AM on Sunday 23 Nov 2014 (Local Time) from PGUM Reporting Station
Scattered Clouds Scattered Clouds  
Wind Chill: 31°   Ceiling: Unl
Heat Index: 38°   Visibility: 10mi
Dew Point: 25°   Wind: 17mph
Humidity: 70%   Direction: 80°E
Pressure: 29.91"   Gusts: 23mph
Location:  13.51°N, 144.84°E
Report Text: PGUM 230054Z 08015G20KT 10SM SCT021 31/25 A2991 RMK AO2 SLP119 T03110250
Loading
Personal Weather Stations






























Interactive Weather Map New forecast layout! Learn more

10-Day Weather Forecast

Advertisements
Track Severe Weather on mobile